createdAt,value
2018-06-14T00:01:00.126Z,4.50
2018-06-14T00:03:28.390Z,4.13
2018-06-14T00:05:56.646Z,3.70
2018-06-14T00:08:24.923Z,4.00
2018-06-14T00:10:53.255Z,4.03
2018-06-14T00:13:21.524Z,3.50
2018-06-14T00:15:49.836Z,3.67
2018-06-14T00:18:18.120Z,3.67
2018-06-14T00:20:46.385Z,3.60
2018-06-14T00:23:14.679Z,3.33
2018-06-14T00:25:42.919Z,3.40
2018-06-14T00:28:11.178Z,3.40
2018-06-14T00:30:39.465Z,3.67
2018-06-14T00:33:07.724Z,3.63
2018-06-14T00:35:36.034Z,3.67
2018-06-14T00:38:04.290Z,3.13
2018-06-14T00:40:32.608Z,3.67
2018-06-14T00:43:00.862Z,3.00
2018-06-14T00:45:29.136Z,3.83
2018-06-14T00:47:57.401Z,3.10
2018-06-14T00:50:25.676Z,3.33
2018-06-14T00:52:54.026Z,2.97
2018-06-14T00:55:22.259Z,3.10
2018-06-14T00:57:50.499Z,2.93
2018-06-14T01:00:18.758Z,3.37
2018-06-14T01:02:46.999Z,3.40
2018-06-14T01:05:15.291Z,3.13
2018-06-14T01:07:43.574Z,3.50
2018-06-14T01:10:11.852Z,3.67
2018-06-14T01:12:40.124Z,3.80
2018-06-14T01:15:08.400Z,3.67
2018-06-14T01:17:36.687Z,3.70
2018-06-14T01:20:05.141Z,3.60
2018-06-14T01:22:33.393Z,3.93
2018-06-14T01:25:01.689Z,3.70
2018-06-14T01:27:29.964Z,3.70
2018-06-14T01:29:58.218Z,4.13
2018-06-14T01:32:26.476Z,3.77
2018-06-14T01:34:54.749Z,3.80
2018-06-14T01:37:28.597Z,4.10
2018-06-14T01:39:56.891Z,4.17
2018-06-14T01:42:25.139Z,3.87
2018-06-14T01:44:53.418Z,4.10
2018-06-14T01:47:21.667Z,4.23
2018-06-14T01:49:49.961Z,4.50
2018-06-14T01:52:18.275Z,4.13
2018-06-14T01:54:46.569Z,4.20
2018-06-14T01:57:14.803Z,4.07
2018-06-14T01:59:43.073Z,4.40
2018-06-14T02:02:11.330Z,4.27
2018-06-14T02:04:39.619Z,3.90
2018-06-14T02:07:07.894Z,3.80
2018-06-14T02:09:36.139Z,4.10
2018-06-14T02:12:04.441Z,3.90
2018-06-14T02:14:32.674Z,4.20
2018-06-14T02:17:01.014Z,4.47
2018-06-14T02:19:29.269Z,3.83
2018-06-14T02:21:57.533Z,4.50
2018-06-14T02:24:25.881Z,4.93
2018-06-14T02:26:54.132Z,4.77
2018-06-14T02:29:22.426Z,4.63
2018-06-14T02:31:50.684Z,4.43
2018-06-14T02:34:19.001Z,4.27
2018-06-14T02:36:47.314Z,4.20
2018-06-14T02:39:15.575Z,4.57
2018-06-14T02:41:43.849Z,4.23
2018-06-14T02:44:12.171Z,4.47
2018-06-14T02:46:40.437Z,4.20
2018-06-14T02:49:08.738Z,4.50
2018-06-14T02:51:36.995Z,4.73
2018-06-14T02:54:05.269Z,4.90
2018-06-14T02:56:33.523Z,4.43
2018-06-14T02:59:01.777Z,4.80
2018-06-14T03:01:30.241Z,4.70
2018-06-14T03:03:58.473Z,4.47
2018-06-14T03:06:26.746Z,4.70
2018-06-14T03:08:54.989Z,4.73
2018-06-14T03:11:23.252Z,4.57
2018-06-14T03:13:51.621Z,5.30
2018-06-14T03:16:19.840Z,5.37
2018-06-14T03:18:48.133Z,5.00
2018-06-14T03:21:16.390Z,4.60
2018-06-14T03:23:44.650Z,5.03
2018-06-14T03:26:12.980Z,5.30
2018-06-14T03:28:41.225Z,4.80
2018-06-14T03:31:09.502Z,4.80
2018-06-14T03:33:37.799Z,4.87
2018-06-14T03:36:06.036Z,5.20
2018-06-14T03:38:34.287Z,5.30
2018-06-14T03:41:02.597Z,4.90
2018-06-14T03:43:30.879Z,5.50
2018-06-14T03:45:59.157Z,5.10
2018-06-14T03:48:27.514Z,4.83
2018-06-14T03:50:55.790Z,4.67
2018-06-14T03:53:24.043Z,4.80
2018-06-14T03:55:52.322Z,5.67
2018-06-14T03:58:20.669Z,5.60
2018-06-14T04:00:48.914Z,6.03
2018-06-14T04:03:17.180Z,6.13
2018-06-14T04:05:45.455Z,5.60
2018-06-14T04:08:13.720Z,5.00
2018-06-14T04:10:42.043Z,5.77
2018-06-14T04:13:10.314Z,6.10
2018-06-14T04:15:38.652Z,6.10
2018-06-14T04:18:06.883Z,5.73
2018-06-14T04:20:35.207Z,5.90
2018-06-14T04:23:03.529Z,5.73
2018-06-14T04:25:31.787Z,6.27
2018-06-14T04:28:00.056Z,5.83
2018-06-14T04:30:28.341Z,5.67
2018-06-14T04:32:56.598Z,6.40
2018-06-14T04:35:24.899Z,6.33
2018-06-14T04:37:53.204Z,6.60
2018-06-14T04:40:21.436Z,6.87
2018-06-14T04:42:49.709Z,6.57
2018-06-14T04:45:17.980Z,6.17
2018-06-14T04:47:46.392Z,6.47
2018-06-14T04:50:14.642Z,6.97
2018-06-14T04:52:42.918Z,6.10
2018-06-14T04:55:11.175Z,6.60
2018-06-14T04:57:39.588Z,6.40
2018-06-14T05:00:09.308Z,6.27
2018-06-14T05:02:37.617Z,6.20
2018-06-14T05:05:06.148Z,6.30
2018-06-14T05:07:34.459Z,6.07
2018-06-14T05:10:02.721Z,6.30
2018-06-14T05:12:31.048Z,5.40
2018-06-14T05:14:59.385Z,4.70
2018-06-14T05:17:27.693Z,4.40
2018-06-14T05:19:55.968Z,4.40
2018-06-14T05:22:24.280Z,4.30
2018-06-14T05:24:52.576Z,4.37
2018-06-14T05:27:20.888Z,3.87
2018-06-14T05:29:49.147Z,3.70
2018-06-14T05:32:17.508Z,4.10
2018-06-14T05:34:45.819Z,4.03
2018-06-14T05:37:14.107Z,3.77
2018-06-14T05:39:42.384Z,4.30
2018-06-14T05:42:10.620Z,3.93
2018-06-14T05:44:39.069Z,3.50
2018-06-14T05:47:07.368Z,3.80
2018-06-14T05:49:35.700Z,3.93
2018-06-14T05:52:04.006Z,3.93
2018-06-14T05:54:32.245Z,3.60
2018-06-14T05:57:00.601Z,4.07
2018-06-14T05:59:28.879Z,3.83
2018-06-14T06:01:57.199Z,3.50
2018-06-14T06:04:25.479Z,3.47
2018-06-14T06:06:53.757Z,3.60
2018-06-14T06:09:22.005Z,3.70
2018-06-14T06:11:50.203Z,3.57
2018-06-14T06:14:18.497Z,3.87
2018-06-14T06:16:46.745Z,4.00
2018-06-14T06:19:14.937Z,3.57
2018-06-14T06:21:43.102Z,3.93
2018-06-14T06:24:11.393Z,3.90
2018-06-14T06:26:39.571Z,3.53
2018-06-14T06:29:07.758Z,3.80
2018-06-14T06:31:35.956Z,3.27
2018-06-14T06:34:04.133Z,4.27
2018-06-14T06:36:32.330Z,4.60
2018-06-14T06:39:00.625Z,4.47
2018-06-14T06:41:28.842Z,4.70
2018-06-14T06:43:57.038Z,4.20
2018-06-14T06:46:25.295Z,5.20
2018-06-14T06:48:53.468Z,4.50
2018-06-14T06:51:21.634Z,4.30
2018-06-14T06:53:49.836Z,4.20
2018-06-14T06:56:18.161Z,4.83
2018-06-14T06:58:46.432Z,4.40
2018-06-14T07:01:14.622Z,4.20
2018-06-14T07:03:42.809Z,4.20
2018-06-14T07:06:11.122Z,5.13
2018-06-14T07:08:40.007Z,4.53
2018-06-14T07:11:08.341Z,4.90
2018-06-14T07:13:36.525Z,4.73
2018-06-14T07:16:04.814Z,4.30
2018-06-14T07:18:32.978Z,4.30
2018-06-14T07:21:01.247Z,3.93
2018-06-14T07:23:29.409Z,3.87
2018-06-14T07:25:57.600Z,4.10
2018-06-14T07:28:25.791Z,4.17
2018-06-14T07:30:53.965Z,4.90
2018-06-14T07:33:22.132Z,4.97
2018-06-14T07:35:50.313Z,3.87
2018-06-14T07:38:18.494Z,4.20
2018-06-14T07:40:46.672Z,3.30
2018-06-14T07:43:14.867Z,3.40
2018-06-14T07:45:43.075Z,3.73
2018-06-14T07:48:11.459Z,3.83
2018-06-14T07:50:39.734Z,3.73
2018-06-14T07:53:08.185Z,3.87
2018-06-14T07:55:36.355Z,3.83
2018-06-14T07:58:04.946Z,4.40
2018-06-14T08:00:33.222Z,3.47
2018-06-14T08:03:01.396Z,4.10
2018-06-14T08:05:29.617Z,3.97
2018-06-14T08:07:57.912Z,3.93
2018-06-14T08:10:26.088Z,3.70
2018-06-14T08:12:54.318Z,3.90
2018-06-14T08:15:22.512Z,4.27
2018-06-14T08:17:50.692Z,3.80
2018-06-14T08:20:18.862Z,3.53
2018-06-14T08:22:47.046Z,4.43
2018-06-14T08:25:15.211Z,3.33
2018-06-14T08:27:43.389Z,4.50
2018-06-14T08:30:11.573Z,4.27
2018-06-14T08:32:39.748Z,3.77
2018-06-14T08:35:07.997Z,4.17
2018-06-14T08:37:36.178Z,4.13
2018-06-14T08:40:04.345Z,4.10
2018-06-14T08:42:32.751Z,3.90
2018-06-14T08:45:00.941Z,3.87
2018-06-14T08:47:29.161Z,3.67
2018-06-14T08:49:57.354Z,4.67
2018-06-14T08:52:25.520Z,4.07
2018-06-14T08:54:53.720Z,3.77
2018-06-14T08:57:21.934Z,3.97
2018-06-14T08:59:50.125Z,3.37
2018-06-14T09:02:18.306Z,4.10
2018-06-14T09:04:46.661Z,4.13
2018-06-14T09:07:14.846Z,4.30
2018-06-14T09:09:43.030Z,4.00
2018-06-14T09:12:11.208Z,4.07
2018-06-14T09:14:39.389Z,4.20
2018-06-14T09:17:07.572Z,4.30
2018-06-14T09:19:35.865Z,4.20
2018-06-14T09:22:04.049Z,4.40
2018-06-14T09:24:32.238Z,4.43
2018-06-14T09:27:00.520Z,4.50
2018-06-14T09:29:28.722Z,4.10
2018-06-14T09:31:56.994Z,3.67
2018-06-14T09:34:25.158Z,4.33
2018-06-14T09:36:53.341Z,4.13
2018-06-14T09:39:21.517Z,4.07
2018-06-14T09:41:49.695Z,4.10
2018-06-14T09:44:17.872Z,3.60
2018-06-14T09:46:46.054Z,3.60
2018-06-14T09:49:15.158Z,3.23
2018-06-14T09:51:44.098Z,3.63
2018-06-14T09:54:12.538Z,3.47
2018-06-14T09:56:40.947Z,3.90
2018-06-14T09:59:09.201Z,3.60
2018-06-14T10:01:37.383Z,3.40
2018-06-14T10:04:06.054Z,3.50
2018-06-14T10:06:34.236Z,3.50
2018-06-14T10:09:02.624Z,3.10
2018-06-14T10:11:30.830Z,3.77
2018-06-14T10:13:59.070Z,3.80
2018-06-14T10:16:27.249Z,3.23
2018-06-14T10:18:55.481Z,3.50
2018-06-14T10:21:23.761Z,3.30
2018-06-14T10:23:52.050Z,3.27
2018-06-14T10:26:20.275Z,3.67
2018-06-14T10:28:48.510Z,3.50
2018-06-14T10:31:16.724Z,2.90
2018-06-14T10:33:44.938Z,3.20
2018-06-14T10:36:13.126Z,3.13
2018-06-14T10:38:41.687Z,2.67
2018-06-14T10:41:09.861Z,3.00
2018-06-14T10:43:38.033Z,3.07
2018-06-14T10:46:06.218Z,2.67
2018-06-14T10:48:34.391Z,3.20
2018-06-14T10:51:03.392Z,2.50
2018-06-14T10:53:31.589Z,3.63
2018-06-14T10:55:59.762Z,2.77
2018-06-14T10:58:28.049Z,2.80
2018-06-14T11:00:56.238Z,3.17
2018-06-14T11:03:24.481Z,3.20
2018-06-14T11:05:52.718Z,3.00
2018-06-14T11:08:20.997Z,3.00
2018-06-14T11:10:49.185Z,3.07
2018-06-14T11:13:17.440Z,3.10
2018-06-14T11:15:45.646Z,3.30
2018-06-14T11:18:13.841Z,3.40
2018-06-14T11:20:42.081Z,3.13
2018-06-14T11:23:10.521Z,2.80
2018-06-14T11:25:38.714Z,3.17
2018-06-14T11:28:06.941Z,2.87
2018-06-14T11:30:35.260Z,2.73
2018-06-14T11:33:03.447Z,2.83
2018-06-14T11:35:31.630Z,3.20
2018-06-14T11:38:00.301Z,3.17
2018-06-14T11:40:28.482Z,2.60
2018-06-14T11:42:57.257Z,2.77
2018-06-14T11:45:25.481Z,2.67
2018-06-14T11:47:53.682Z,2.83
2018-06-14T11:50:21.911Z,2.47
2018-06-14T11:52:50.102Z,3.10
2018-06-14T11:55:18.286Z,3.13
2018-06-14T11:57:46.471Z,3.07
2018-06-14T12:00:14.741Z,3.70
2018-06-14T12:02:43.076Z,3.30
2018-06-14T12:05:11.337Z,3.37
2018-06-14T12:07:39.558Z,3.57
2018-06-14T12:10:07.821Z,3.30
2018-06-14T12:12:36.100Z,3.33
2018-06-14T12:15:04.375Z,3.40
2018-06-14T12:17:32.537Z,2.70
2018-06-14T12:20:01.240Z,2.87
2018-06-14T12:22:29.490Z,2.90
2018-06-14T12:24:57.675Z,3.40
2018-06-14T12:27:25.946Z,3.10
2018-06-14T12:29:54.185Z,2.73
2018-06-14T12:32:22.389Z,2.40
2018-06-14T12:34:50.884Z,3.00
2018-06-14T12:37:19.300Z,2.80
2018-06-14T12:39:47.496Z,2.70
2018-06-14T12:42:15.762Z,2.90
2018-06-14T12:44:43.946Z,2.90
2018-06-14T12:47:12.142Z,2.40
2018-06-14T12:49:40.341Z,2.90
2018-06-14T12:52:08.540Z,2.63
2018-06-14T12:54:36.734Z,2.53
2018-06-14T12:57:05.058Z,2.83
2018-06-14T12:59:33.242Z,2.50
2018-06-14T13:02:01.522Z,2.43
2018-06-14T13:04:29.707Z,2.40
2018-06-14T13:06:57.883Z,2.67
2018-06-14T13:09:26.062Z,2.37
2018-06-14T13:11:54.359Z,2.70
2018-06-14T13:14:22.602Z,2.17
2018-06-14T13:16:50.829Z,2.70
2018-06-14T13:19:19.042Z,2.63
2018-06-14T13:21:47.324Z,2.93
2018-06-14T13:24:15.511Z,2.60
2018-06-14T13:26:43.812Z,2.67
2018-06-14T13:29:12.022Z,2.80
2018-06-14T13:31:41.505Z,2.27
2018-06-14T13:34:10.252Z,2.50
2018-06-14T13:36:38.428Z,2.87
2018-06-14T13:39:07.014Z,2.70
2018-06-14T13:41:35.189Z,2.73
2018-06-14T13:44:03.423Z,2.33
2018-06-14T13:46:31.893Z,2.87
2018-06-14T13:49:00.141Z,2.73
2018-06-14T13:51:28.410Z,2.70
2018-06-14T13:53:56.770Z,2.60
2018-06-14T13:56:25.108Z,2.40
2018-06-14T13:58:53.290Z,3.03
2018-06-14T14:01:21.481Z,2.87
2018-06-14T14:03:49.696Z,2.73
2018-06-14T14:06:17.898Z,2.37
2018-06-14T14:08:46.112Z,2.33
2018-06-14T14:11:14.383Z,2.33
2018-06-14T14:13:42.555Z,2.57
2018-06-14T14:16:10.726Z,2.47
2018-06-14T14:18:38.913Z,2.40
2018-06-14T14:21:07.072Z,2.50
2018-06-14T14:23:35.252Z,2.23
2018-06-14T14:26:03.481Z,2.60
2018-06-14T14:28:31.714Z,2.80
2018-06-14T14:31:00.546Z,2.53
2018-06-14T14:33:28.713Z,2.43
2018-06-14T14:35:56.894Z,2.30
2018-06-14T14:38:25.148Z,2.03
2018-06-14T14:40:53.312Z,2.80
2018-06-14T14:43:21.486Z,2.53
2018-06-14T14:45:49.666Z,2.83
2018-06-14T14:48:17.851Z,2.40
2018-06-14T14:50:46.130Z,2.10
2018-06-14T14:53:14.340Z,2.30
2018-06-14T14:55:42.702Z,2.20
2018-06-14T14:58:10.870Z,2.13
2018-06-14T15:00:39.047Z,2.20
2018-06-14T15:03:07.222Z,2.00
2018-06-14T15:05:35.405Z,2.23
2018-06-14T15:08:03.577Z,2.00
2018-06-14T15:10:31.810Z,2.10
2018-06-14T15:13:00.026Z,2.20
2018-06-14T15:15:28.234Z,2.23
2018-06-14T15:17:56.452Z,2.10
2018-06-14T15:20:24.798Z,2.67
2018-06-14T15:22:53.000Z,2.30
2018-06-14T15:25:21.177Z,2.37
2018-06-14T15:27:49.387Z,1.97
2018-06-14T15:30:17.615Z,2.10
2018-06-14T15:32:45.780Z,1.90
2018-06-14T15:35:13.953Z,2.20
2018-06-14T15:37:42.246Z,2.23
2018-06-14T15:40:10.438Z,2.33
2018-06-14T15:42:38.650Z,2.10
2018-06-14T15:45:06.825Z,2.00
2018-06-14T15:47:34.992Z,2.33
2018-06-14T15:50:03.185Z,1.90
2018-06-14T15:52:31.370Z,2.63
2018-06-14T15:55:05.140Z,2.27
2018-06-14T15:57:33.350Z,2.00
2018-06-14T16:00:01.526Z,2.50
2018-06-14T16:02:29.682Z,2.07
2018-06-14T16:04:57.856Z,2.37
2018-06-14T16:07:26.048Z,1.93
2018-06-14T16:09:54.374Z,2.33
2018-06-14T16:12:22.558Z,2.00
2018-06-14T16:14:50.731Z,2.00
2018-06-14T16:17:18.915Z,2.53
2018-06-14T16:19:47.080Z,2.50
2018-06-14T16:22:15.261Z,2.30
2018-06-14T16:24:43.502Z,2.37
2018-06-14T16:27:11.704Z,2.70
2018-06-14T16:29:39.884Z,2.40
2018-06-14T16:32:08.078Z,2.47
2018-06-14T16:34:36.267Z,2.50
2018-06-14T16:37:04.566Z,2.30
2018-06-14T16:39:32.784Z,2.60
2018-06-14T16:42:00.961Z,2.77
2018-06-14T16:44:29.148Z,2.43
2018-06-14T16:46:57.326Z,2.40
2018-06-14T16:49:25.602Z,2.07
2018-06-14T16:51:53.777Z,2.17
2018-06-14T16:54:21.977Z,2.00
2018-06-14T16:56:50.194Z,2.37
2018-06-14T16:59:18.444Z,2.47
2018-06-14T17:01:46.722Z,2.00
2018-06-14T17:04:15.105Z,2.27
2018-06-14T17:06:43.292Z,2.40
2018-06-14T17:09:11.522Z,2.43
2018-06-14T17:11:39.755Z,2.47
2018-06-14T17:14:07.926Z,2.37
2018-06-14T17:16:36.169Z,2.37
2018-06-14T17:19:04.428Z,2.17
2018-06-14T17:21:32.638Z,2.07
2018-06-14T17:24:00.841Z,2.20
2018-06-14T17:26:29.060Z,2.60
2018-06-14T17:28:57.225Z,2.60
2018-06-14T17:31:25.872Z,2.53
2018-06-14T17:33:54.569Z,2.50
2018-06-14T17:36:22.797Z,2.30
2018-06-14T17:38:50.992Z,2.40
2018-06-14T17:41:19.198Z,2.23
2018-06-14T17:43:47.386Z,2.60
2018-06-14T17:46:15.650Z,2.70
2018-06-14T17:48:43.830Z,2.70
2018-06-14T17:51:12.126Z,2.47
2018-06-14T17:53:40.309Z,2.57
2018-06-14T17:56:08.567Z,2.70
2018-06-14T17:58:36.755Z,2.93
2018-06-14T18:01:04.913Z,3.20
2018-06-14T18:03:33.077Z,2.67
2018-06-14T18:06:01.731Z,3.00
2018-06-14T18:08:29.514Z,3.20
2018-06-14T18:10:57.726Z,3.57
2018-06-14T18:13:25.915Z,3.07
2018-06-14T18:15:54.102Z,3.40
2018-06-14T18:18:22.269Z,3.20
2018-06-14T18:20:50.507Z,3.20
2018-06-14T18:23:18.721Z,3.30
2018-06-14T18:25:46.970Z,3.30
2018-06-14T18:28:15.169Z,3.47
2018-06-14T18:30:43.412Z,3.43
2018-06-14T18:33:11.580Z,3.90
2018-06-14T18:35:39.799Z,3.77
2018-06-14T18:38:08.013Z,5.17
2018-06-14T18:40:36.328Z,5.20
2018-06-14T18:43:04.813Z,5.90
2018-06-14T18:45:33.217Z,5.03
2018-06-14T18:48:01.457Z,3.97
2018-06-14T18:50:29.630Z,4.30
2018-06-14T18:52:57.809Z,4.10
2018-06-14T18:55:25.969Z,4.03
2018-06-14T18:57:54.138Z,3.83
2018-06-14T19:00:22.333Z,3.90
2018-06-14T19:02:50.527Z,5.70
2018-06-14T19:05:18.772Z,5.83
2018-06-14T19:07:46.958Z,6.03
2018-06-14T19:10:15.162Z,6.70
2018-06-14T19:12:43.817Z,6.47
2018-06-14T19:15:12.007Z,9.37
2018-06-14T19:17:40.461Z,9.83
2018-06-14T19:20:08.756Z,10.53
2018-06-14T19:22:37.020Z,10.37
2018-06-14T19:25:05.390Z,10.37
2018-06-14T19:27:33.591Z,9.03
2018-06-14T19:30:01.827Z,8.60
2018-06-14T19:32:30.015Z,7.90
2018-06-14T19:34:58.237Z,7.67
2018-06-14T19:37:26.441Z,8.10
2018-06-14T19:39:54.613Z,6.90
2018-06-14T19:42:22.866Z,7.47
2018-06-14T19:44:51.057Z,7.17
2018-06-14T19:47:19.258Z,7.63
2018-06-14T19:49:47.433Z,7.10
2018-06-14T19:52:15.617Z,7.40
2018-06-14T19:54:43.888Z,7.60
2018-06-14T19:57:12.095Z,8.50
2018-06-14T19:59:40.300Z,7.70
2018-06-14T20:02:08.487Z,7.83
2018-06-14T20:04:36.690Z,5.97
2018-06-14T20:07:04.938Z,6.03
2018-06-14T20:09:33.153Z,4.70
2018-06-14T20:12:01.381Z,4.83
2018-06-14T20:14:29.552Z,4.50
2018-06-14T20:16:57.749Z,5.33
2018-06-14T20:19:25.929Z,4.50
2018-06-14T20:21:54.135Z,4.60
2018-06-14T20:24:22.388Z,5.43
2018-06-14T20:26:50.557Z,6.20
2018-06-14T20:29:18.729Z,8.67
2018-06-14T20:31:46.919Z,8.53
2018-06-14T20:34:15.218Z,8.47
2018-06-14T20:36:43.434Z,8.93
2018-06-14T20:39:12.903Z,8.97
2018-06-14T20:41:41.283Z,8.57
2018-06-14T20:44:09.653Z,7.93
2018-06-14T20:46:37.895Z,8.53
2018-06-14T20:49:06.100Z,8.07
2018-06-14T20:51:35.531Z,8.53
2018-06-14T20:54:03.879Z,8.13
2018-06-14T20:56:32.296Z,8.30
2018-06-14T20:59:00.562Z,8.20
2018-06-14T21:01:28.951Z,7.53
2018-06-14T21:03:57.376Z,8.20
2018-06-14T21:06:26.334Z,7.73
2018-06-14T21:08:54.647Z,7.30
2018-06-14T21:11:23.646Z,7.10
2018-06-14T21:13:52.023Z,6.83
2018-06-14T21:16:20.389Z,6.50
2018-06-14T21:18:48.698Z,6.27
2018-06-14T21:21:17.056Z,6.53
2018-06-14T21:23:45.364Z,6.23
2018-06-14T21:26:13.709Z,6.67
2018-06-14T21:28:42.079Z,7.10
2018-06-14T21:31:12.016Z,6.67
2018-06-14T21:33:42.689Z,6.10
2018-06-14T21:36:11.171Z,6.50
2018-06-14T21:38:40.600Z,5.93
2018-06-14T21:41:12.809Z,6.13
2018-06-14T21:43:43.129Z,7.00
2018-06-14T21:46:11.556Z,6.50
2018-06-14T21:48:40.079Z,5.67
2018-06-14T21:51:09.541Z,7.27
2018-06-14T21:53:37.944Z,6.63
2018-06-14T21:56:06.440Z,6.30
2018-06-14T21:58:37.080Z,6.50
2018-06-14T22:01:05.924Z,6.50
2018-06-14T22:03:39.712Z,6.17
2018-06-14T22:06:08.058Z,6.23
2018-06-14T22:08:36.357Z,6.73
2018-06-14T22:11:04.728Z,6.93
2018-06-14T22:13:32.998Z,5.97
2018-06-14T22:16:01.279Z,6.37
2018-06-14T22:18:29.607Z,6.47
2018-06-14T22:20:57.889Z,6.83
2018-06-14T22:23:26.167Z,6.73
2018-06-14T22:25:54.483Z,6.43
2018-06-14T22:28:24.660Z,6.10
2018-06-14T22:30:53.030Z,6.70
2018-06-14T22:33:31.162Z,6.63
2018-06-14T22:36:02.455Z,6.60
2018-06-14T22:38:30.748Z,7.00
2018-06-14T22:41:00.117Z,7.23
2018-06-14T22:43:28.439Z,6.90
2018-06-14T22:45:56.771Z,5.90
2018-06-14T22:48:25.153Z,6.70
2018-06-14T22:50:58.873Z,6.97
2018-06-14T22:53:27.172Z,6.17
2018-06-14T22:55:55.511Z,6.50
2018-06-14T22:58:23.882Z,6.90
2018-06-14T23:01:02.688Z,7.27
2018-06-14T23:03:30.920Z,6.87
2018-06-14T23:05:59.190Z,7.00
2018-06-14T23:08:27.415Z,7.03
2018-06-14T23:11:01.362Z,6.87
2018-06-14T23:13:29.605Z,6.87
2018-06-14T23:15:57.947Z,6.53
2018-06-14T23:18:26.236Z,7.13
2018-06-14T23:20:54.476Z,6.30
2018-06-14T23:23:22.764Z,6.73
2018-06-14T23:25:51.056Z,7.03
2018-06-14T23:28:19.299Z,7.13
2018-06-14T23:30:47.545Z,6.97
2018-06-14T23:33:15.806Z,6.50
2018-06-14T23:35:44.103Z,6.27
2018-06-14T23:38:12.525Z,6.60
2018-06-14T23:40:40.780Z,6.43
2018-06-14T23:43:09.028Z,7.30
2018-06-14T23:45:37.251Z,7.07
2018-06-14T23:48:05.474Z,6.93
2018-06-14T23:50:33.805Z,7.63
2018-06-14T23:53:02.084Z,6.20
2018-06-14T23:55:30.341Z,7.20
2018-06-14T23:57:58.563Z,7.10
